Huvudsida
METAR-TAF:

METAR-TAF

Flygplatser :

Umeå Airport

Umeå, Sverige

latitud: 63-48N, longitud: 020-17E, höjd: 7 m

Aktuellt väderrapport

Denna rapport gjordes för 24 minuter sedan, klockan 12:50 UTC
Vind 11 kt från syd
Temperatur 17°C
Fuktighet 88%
Tryck 1007 hPa
Sikt 10 km eller mer
Brutna moln på en höjd av 900 ft
Mulet på en höjd av 1500 ft

METAR: ESNU 171250Z 17011KT 9999 BKN009 OVC015 17/15 Q1007

Tid: 15:14 (13:14 UTC)

Väderprognos

Denna rapport gjordes för 1 timme och 44 minuter sedan, klockan 11:30 UTC
Prognos gäller från 17 kl. 12 UTC till 17 kl. 21 UTC
Vind 10 kt från syd
Sikt 10 km eller mer
Brutna moln på en höjd av 600 ft
Blir
från 17 kl. 12 UTC till 17 kl. 14 UTC
Brutna moln på en höjd av 4000 ft

TAF: ESNU 171130Z 1712/1721 18010KT 9999 BKN006 BECMG 1712/1714 BKN040

Aktuella väderrapporter och prognoser från 4000 flygplatser (METAR- och TAF-rapporter).

De tillgängliga stationerna syns som gula och röda prickar på kartan.

För musen över prickarna för att se namnen på stationerna.

Klicka sedan för att få väderrapporter och prognoser.

För att ändra kartan: Klicka på de gröna knapparna med ett svart kors på för att zooma in; den gröna knappen med ett streck på för att zooma ut; eller på de gröna pilarna för angränsande kartor.


METAR-TAF: